Time;durP1;ratioP1;P1;durP2;ratioP2;P2;SDS_P1;SDS_P2;PMS_P1;PMS_P2;Temp;Humidity;BMP_temperature;BMP_pressure;BME280_temperature;BME280_humidity;BME280_pressure;Samples;Min_cycle;Max_cycle;Signal;HPM_P1;HPM_P2
2021/09/10 00:01:10;;;;;;;259.95;187.57;;;;;;;;;;5148917;27;20059;-53
2021/09/10 00:03:39;;;;;;;248.35;183.15;;;;;;;;;;5149902;27;20035;-54
2021/09/10 00:06:07;;;;;;;255.27;180.12;;;;;;;;;;5149611;27;20023;-53
2021/09/10 00:08:35;;;;;;;258.38;185.52;;;;;;;;;;5149999;27;20028;-54
2021/09/10 00:11:04;;;;;;;256.30;183.35;;;;;;;;;;5131485;27;20738;-54
2021/09/10 00:13:32;;;;;;;256.10;186.23;;;;;;;;;;5149997;27;20370;-55
2021/09/10 00:16:02;;;;;;;265.12;193.27;;;;;;;;;;5149740;27;20523;-54
2021/09/10 00:18:30;;;;;;;266.35;192.27;;;;;;;;;;5150955;27;20067;-54
2021/09/10 00:20:58;;;;;;;268.90;188.98;;;;;;;;;;5150046;27;20034;-56
2021/09/10 00:23:26;;;;;;;268.58;190.00;;;;;;;;;;5149494;27;20042;-55
2021/09/10 00:25:56;;;;;;;264.98;188.62;;;;;;;;;;5151142;27;20024;-56
2021/09/10 00:28:25;;;;;;;261.00;178.95;;;;;;;;;;5151264;27;20056;-55
2021/09/10 00:31:01;;;;;;;268.75;188.35;;;;;;;;;;5151622;27;20007;-55
2021/09/10 00:33:29;;;;;;;276.02;194.65;;;;;;;;;;5151301;27;20027;-55
2021/09/10 00:35:58;;;;;;;273.85;196.73;;;;;;;;;;5150844;27;20019;-55
2021/09/10 00:38:27;;;;;;;253.18;173.13;;;;;;;;;;5151189;27;20039;-55
2021/09/10 00:40:56;;;;;;;269.45;190.75;;;;;;;;;;5150949;27;20360;-55
2021/09/10 00:43:24;;;;;;;267.48;193.68;;;;;;;;;;5149799;27;20093;-55
2021/09/10 00:45:52;;;;;;;267.67;189.65;;;;;;;;;;5150058;27;20047;-56
2021/09/10 00:48:21;;;;;;;278.10;195.40;;;;;;;;;;5148990;27;20357;-55
2021/09/10 00:50:49;;;;;;;265.67;190.68;;;;;;;;;;5151193;27;20420;-55
2021/09/10 00:53:17;;;;;;;275.85;197.73;;;;;;;;;;5151347;27;20020;-55
2021/09/10 00:55:46;;;;;;;259.55;187.50;;;;;;;;;;5151456;27;20476;-55
2021/09/10 00:58:15;;;;;;;250.68;181.37;;;;;;;;;;5150901;27;20051;-55
2021/09/10 01:00:43;;;;;;;258.42;185.95;;;;;;;;;;5149483;27;20023;-55
2021/09/10 01:03:12;;;;;;;280.83;194.10;;;;;;;;;;5150839;27;20042;-55
2021/09/10 01:05:44;;;;;;;256.80;180.73;;;;;;;;;;5151678;27;20030;-55
2021/09/10 01:08:13;;;;;;;261.17;190.23;;;;;;;;;;5148990;27;20440;-56
2021/09/10 01:10:42;;;;;;;260.05;185.95;;;;;;;;;;5148950;27;20030;-54
2021/09/10 01:13:12;;;;;;;262.85;190.95;;;;;;;;;;5150635;27;20019;-55
2021/09/10 01:15:41;;;;;;;252.35;178.60;;;;;;;;;;5150041;27;20020;-55
2021/09/10 01:18:09;;;;;;;254.98;176.75;;;;;;;;;;5149896;27;20067;-55
2021/09/10 01:20:37;;;;;;;258.75;181.60;;;;;;;;;;5149895;27;20033;-53
2021/09/10 01:23:06;;;;;;;260.50;186.37;;;;;;;;;;5149458;27;20024;-55
2021/09/10 01:25:34;;;;;;;261.87;183.37;;;;;;;;;;5151157;27;20075;-55
2021/09/10 01:28:02;;;;;;;245.70;173.90;;;;;;;;;;5149410;27;20034;-55
2021/09/10 01:30:35;;;;;;;243.77;178.05;;;;;;;;;;5151194;27;20534;-55
2021/09/10 01:33:05;;;;;;;231.85;172.93;;;;;;;;;;5151145;27;20373;-54
2021/09/10 01:35:34;;;;;;;238.77;177.15;;;;;;;;;;5150873;27;20432;-55
2021/09/10 01:38:03;;;;;;;228.43;172.57;;;;;;;;;;5150644;27;20020;-55
2021/09/10 01:40:31;;;;;;;224.48;165.75;;;;;;;;;;5149417;27;20024;-55
2021/09/10 01:43:00;;;;;;;218.95;156.70;;;;;;;;;;5151859;27;20067;-56
2021/09/10 01:45:28;;;;;;;230.07;169.23;;;;;;;;;;5150297;27;20032;-55
2021/09/10 01:47:56;;;;;;;234.27;172.80;;;;;;;;;;5150099;27;20476;-55
2021/09/10 01:50:25;;;;;;;242.50;182.85;;;;;;;;;;5150658;27;20077;-55
2021/09/10 01:52:54;;;;;;;237.18;182.68;;;;;;;;;;5152215;27;20058;-55
2021/09/10 01:55:22;;;;;;;239.98;181.32;;;;;;;;;;5151908;27;20378;-56
2021/09/10 01:57:51;;;;;;;239.93;177.00;;;;;;;;;;5150436;27;20063;-55
2021/09/10 02:00:20;;;;;;;243.48;180.63;;;;;;;;;;5151958;27;20050;-55
2021/09/10 02:02:48;;;;;;;244.40;179.38;;;;;;;;;;5151567;27;20031;-55
2021/09/10 02:05:17;;;;;;;230.75;167.45;;;;;;;;;;5150484;27;20020;-55
2021/09/10 02:07:45;;;;;;;237.35;177.98;;;;;;;;;;5149720;27;20051;-55
2021/09/10 02:10:14;;;;;;;232.65;175.10;;;;;;;;;;5152490;27;20444;-56
2021/09/10 02:12:42;;;;;;;233.48;178.95;;;;;;;;;;5149475;27;20554;-55
2021/09/10 02:15:12;;;;;;;231.23;171.95;;;;;;;;;;5149273;27;20054;-55
2021/09/10 02:17:41;;;;;;;231.00;171.98;;;;;;;;;;5152034;27;20424;-55
2021/09/10 02:20:09;;;;;;;231.52;169.93;;;;;;;;;;5152117;27;20023;-55
2021/09/10 02:22:38;;;;;;;228.35;168.37;;;;;;;;;;5151731;27;20548;-55
2021/09/10 02:25:07;;;;;;;220.00;156.65;;;;;;;;;;5151972;27;20025;-55
2021/09/10 02:27:35;;;;;;;223.07;154.68;;;;;;;;;;5151348;27;20093;-55
2021/09/10 02:30:04;;;;;;;266.58;177.00;;;;;;;;;;5150857;27;20071;-55
2021/09/10 02:32:33;;;;;;;283.58;199.45;;;;;;;;;;5150528;27;20031;-55
2021/09/10 02:35:01;;;;;;;251.15;184.35;;;;;;;;;;5151021;27;20684;-55
2021/09/10 02:37:29;;;;;;;244.10;177.18;;;;;;;;;;5149536;27;20038;-55
2021/09/10 02:39:58;;;;;;;246.82;181.57;;;;;;;;;;5151609;27;20035;-55
2021/09/10 02:42:26;;;;;;;241.82;178.82;;;;;;;;;;5150686;27;20027;-55
2021/09/10 02:44:54;;;;;;;234.00;175.95;;;;;;;;;;5150899;27;20054;-55
2021/09/10 02:47:23;;;;;;;237.48;175.00;;;;;;;;;;5148849;27;20032;-55
2021/09/10 02:49:51;;;;;;;249.77;183.82;;;;;;;;;;5150335;27;20019;-55
2021/09/10 02:52:19;;;;;;;249.48;184.77;;;;;;;;;;5151868;27;20023;-55
2021/09/10 02:54:48;;;;;;;247.27;187.77;;;;;;;;;;5151062;27;20027;-55
2021/09/10 02:57:16;;;;;;;240.73;179.55;;;;;;;;;;5152048;27;20024;-55
2021/09/10 02:59:45;;;;;;;249.70;180.35;;;;;;;;;;5148901;27;20078;-56
2021/09/10 03:02:13;;;;;;;253.70;186.23;;;;;;;;;;5151125;27;20042;-55
2021/09/10 03:04:45;;;;;;;261.17;189.60;;;;;;;;;;5149539;27;20019;-56
2021/09/10 03:07:14;;;;;;;256.15;193.60;;;;;;;;;;5151101;27;20511;-55
2021/09/10 03:09:42;;;;;;;258.67;186.57;;;;;;;;;;5151409;27;20026;-55
2021/09/10 03:12:10;;;;;;;252.02;187.93;;;;;;;;;;5149322;27;20070;-56
2021/09/10 03:14:39;;;;;;;254.20;189.55;;;;;;;;;;5151270;27;20413;-55
2021/09/10 03:17:20;;;;;;;266.23;195.40;;;;;;;;;;4459923;31;20071;-54
2021/09/10 03:19:48;;;;;;;246.27;176.52;;;;;;;;;;4460804;32;20076;-54
2021/09/10 03:22:17;;;;;;;252.27;187.10;;;;;;;;;;4449507;32;20077;-54
2021/09/10 03:24:45;;;;;;;252.43;190.20;;;;;;;;;;4445812;32;20123;-54
2021/09/10 03:27:13;;;;;;;262.85;190.23;;;;;;;;;;4444850;32;20101;-54
2021/09/10 03:29:41;;;;;;;260.48;193.95;;;;;;;;;;4446929;32;20522;-54
2021/09/10 03:32:10;;;;;;;243.27;182.25;;;;;;;;;;4445278;32;20046;-54
2021/09/10 03:34:38;;;;;;;246.77;186.10;;;;;;;;;;4451233;32;20054;-54
2021/09/10 03:37:07;;;;;;;236.95;182.40;;;;;;;;;;4444967;32;20497;-54
2021/09/10 03:39:35;;;;;;;237.52;177.82;;;;;;;;;;4460587;32;20045;-54
2021/09/10 03:42:04;;;;;;;244.00;192.95;;;;;;;;;;4447757;32;20090;-54
2021/09/10 03:44:32;;;;;;;236.07;179.65;;;;;;;;;;4447071;32;20039;-54
2021/09/10 03:47:04;;;;;;;237.93;176.45;;;;;;;;;;4446339;32;20054;-54
2021/09/10 03:49:34;;;;;;;237.68;180.93;;;;;;;;;;4445265;32;20037;-54
2021/09/10 03:52:02;;;;;;;244.40;191.15;;;;;;;;;;4445602;32;20061;-54
2021/09/10 03:54:31;;;;;;;244.07;176.30;;;;;;;;;;4454503;32;20725;-54
2021/09/10 03:56:59;;;;;;;251.73;196.35;;;;;;;;;;4450140;32;20487;-54
2021/09/10 03:59:27;;;;;;;248.13;190.52;;;;;;;;;;4444863;32;20747;-54
2021/09/10 04:01:56;;;;;;;239.93;191.95;;;;;;;;;;4445622;32;20076;-54
2021/09/10 04:04:25;;;;;;;240.07;186.32;;;;;;;;;;4445987;32;20081;-54
2021/09/10 04:06:56;;;;;;;236.68;178.10;;;;;;;;;;4446726;32;20061;-54
2021/09/10 04:09:25;;;;;;;242.98;190.45;;;;;;;;;;4448789;32;20053;-54
2021/09/10 04:11:55;;;;;;;242.65;191.25;;;;;;;;;;4450555;32;20065;-54
2021/09/10 04:14:23;;;;;;;244.70;195.40;;;;;;;;;;4442527;32;20046;-54
2021/09/10 04:16:51;;;;;;;243.15;183.15;;;;;;;;;;4443482;32;20061;-54
2021/09/10 04:19:20;;;;;;;244.10;184.80;;;;;;;;;;4443992;32;20687;-54
2021/09/10 04:21:48;;;;;;;239.25;180.35;;;;;;;;;;4444077;32;20092;-53
2021/09/10 04:24:18;;;;;;;229.35;168.45;;;;;;;;;;4435907;32;20073;-54
2021/09/10 04:26:47;;;;;;;242.68;172.37;;;;;;;;;;4431488;32;20053;-54
2021/09/10 04:29:15;;;;;;;239.48;167.20;;;;;;;;;;4415943;32;20105;-53
2021/09/10 04:31:43;;;;;;;232.68;153.43;;;;;;;;;;4413232;32;20124;-54
2021/09/10 04:34:14;;;;;;;214.10;143.07;;;;;;;;;;4414934;32;20093;-52
2021/09/10 04:36:42;;;;;;;236.65;164.10;;;;;;;;;;4413028;32;20077;-52
2021/09/10 04:39:10;;;;;;;232.27;169.07;;;;;;;;;;4419887;32;20030;-54
2021/09/10 04:41:38;;;;;;;239.00;168.52;;;;;;;;;;4419448;32;20050;-54
2021/09/10 04:44:06;;;;;;;237.77;167.30;;;;;;;;;;4423080;32;20469;-54
2021/09/10 04:46:35;;;;;;;233.70;159.68;;;;;;;;;;4416584;32;20124;-54
2021/09/10 04:49:03;;;;;;;228.27;158.93;;;;;;;;;;4418406;32;20132;-54
2021/09/10 04:51:31;;;;;;;246.20;170.18;;;;;;;;;;4425097;32;20109;-54
2021/09/10 04:54:00;;;;;;;266.90;198.48;;;;;;;;;;4419417;32;20098;-54
2021/09/10 04:56:29;;;;;;;254.02;181.32;;;;;;;;;;4418910;32;20050;-54
2021/09/10 04:59:02;;;;;;;242.07;174.25;;;;;;;;;;4419443;32;20072;-53
2021/09/10 05:01:32;;;;;;;234.62;167.98;;;;;;;;;;4422196;32;20522;-54
2021/09/10 05:04:01;;;;;;;238.68;165.27;;;;;;;;;;4429208;32;20038;-54
2021/09/10 05:06:29;;;;;;;234.32;165.32;;;;;;;;;;4419064;32;20104;-54
2021/09/10 05:08:58;;;;;;;229.30;165.27;;;;;;;;;;4438317;32;20072;-54
2021/09/10 05:11:26;;;;;;;221.20;163.43;;;;;;;;;;4432316;32;20109;-54
2021/09/10 05:13:54;;;;;;;241.80;174.82;;;;;;;;;;4419885;32;20097;-54
2021/09/10 05:16:23;;;;;;;237.98;176.27;;;;;;;;;;4425956;32;20748;-54
2021/09/10 05:18:51;;;;;;;253.62;198.30;;;;;;;;;;4423803;32;20054;-54
2021/09/10 05:21:19;;;;;;;235.70;172.30;;;;;;;;;;4421515;32;20066;-54
2021/09/10 05:23:48;;;;;;;239.43;181.80;;;;;;;;;;4418135;32;20050;-54
2021/09/10 05:26:16;;;;;;;232.25;181.73;;;;;;;;;;4433402;32;20058;-54
2021/09/10 05:28:45;;;;;;;244.35;187.18;;;;;;;;;;4426372;32;20119;-54
2021/09/10 05:31:14;;;;;;;226.30;173.87;;;;;;;;;;4424395;32;20149;-54
2021/09/10 05:33:42;;;;;;;221.18;171.23;;;;;;;;;;4428300;32;20119;-54
2021/09/10 05:36:10;;;;;;;219.27;174.60;;;;;;;;;;4428132;32;20080;-54
2021/09/10 05:38:39;;;;;;;213.50;168.48;;;;;;;;;;4427244;32;20038;-54
2021/09/10 05:41:07;;;;;;;207.50;160.07;;;;;;;;;;4417375;32;20528;-54
2021/09/10 05:43:35;;;;;;;207.60;152.10;;;;;;;;;;4429543;32;20093;-54
2021/09/10 05:46:04;;;;;;;208.23;152.32;;;;;;;;;;4428991;32;20108;-54
2021/09/10 05:48:33;;;;;;;216.60;163.18;;;;;;;;;;4427787;32;20539;-54
2021/09/10 05:51:01;;;;;;;211.77;161.98;;;;;;;;;;4423778;32;20050;-54
2021/09/10 05:53:30;;;;;;;204.25;154.30;;;;;;;;;;4428412;32;20169;-54
2021/09/10 05:56:00;;;;;;;220.18;174.52;;;;;;;;;;4434037;32;20107;-54
2021/09/10 05:58:29;;;;;;;218.15;179.40;;;;;;;;;;4424146;32;20062;-52
2021/09/10 06:00:58;;;;;;;221.15;188.18;;;;;;;;;;4426079;32;20088;-54
2021/09/10 06:03:27;;;;;;;217.20;180.77;;;;;;;;;;4427938;32;20155;-54
2021/09/10 06:05:56;;;;;;;222.60;182.43;;;;;;;;;;4426977;32;20151;-54
2021/09/10 06:08:24;;;;;;;222.73;178.98;;;;;;;;;;4423070;32;20095;-56
2021/09/10 06:10:53;;;;;;;211.90;171.80;;;;;;;;;;4428143;32;20515;-54
2021/09/10 06:13:21;;;;;;;209.50;169.37;;;;;;;;;;4422233;32;20034;-54
2021/09/10 06:15:50;;;;;;;201.77;157.95;;;;;;;;;;4417496;32;20062;-53
2021/09/10 06:18:19;;;;;;;200.73;148.62;;;;;;;;;;4425707;32;20050;-54
2021/09/10 06:20:47;;;;;;;204.25;163.25;;;;;;;;;;4426598;32;20061;-54
2021/09/10 06:23:15;;;;;;;204.85;155.52;;;;;;;;;;4432413;32;20477;-54
2021/09/10 06:25:44;;;;;;;214.88;163.40;;;;;;;;;;4425064;32;20065;-54
2021/09/10 06:28:12;;;;;;;233.48;174.23;;;;;;;;;;4419780;32;20103;-54
2021/09/10 06:30:40;;;;;;;235.20;182.88;;;;;;;;;;4422805;32;20084;-54
2021/09/10 06:33:09;;;;;;;215.60;160.45;;;;;;;;;;4421426;32;20101;-54
2021/09/10 06:35:37;;;;;;;216.88;162.00;;;;;;;;;;4428545;32;20073;-54
2021/09/10 06:38:06;;;;;;;214.90;161.48;;;;;;;;;;4422709;32;20073;-55
2021/09/10 06:40:35;;;;;;;214.23;158.20;;;;;;;;;;4422833;32;20424;-54
2021/09/10 06:43:03;;;;;;;210.32;154.25;;;;;;;;;;4435304;32;20491;-54
2021/09/10 06:45:31;;;;;;;229.52;162.68;;;;;;;;;;4417707;32;20062;-54
2021/09/10 06:48:00;;;;;;;225.32;164.48;;;;;;;;;;4434384;32;20081;-54
2021/09/10 06:50:28;;;;;;;227.93;176.70;;;;;;;;;;4438148;32;20050;-54
2021/09/10 06:52:56;;;;;;;241.05;190.50;;;;;;;;;;4427372;32;20039;-54
2021/09/10 06:55:25;;;;;;;237.63;193.18;;;;;;;;;;4429927;32;20081;-55
2021/09/10 06:57:53;;;;;;;350.75;242.18;;;;;;;;;;4422286;32;20029;-54
2021/09/10 07:00:22;;;;;;;373.67;254.80;;;;;;;;;;4424614;32;20034;-54
2021/09/10 07:02:50;;;;;;;385.02;256.45;;;;;;;;;;4424050;32;20050;-54
2021/09/10 07:05:19;;;;;;;392.17;260.85;;;;;;;;;;4418605;32;20047;-54
2021/09/10 07:07:47;;;;;;;396.05;261.20;;;;;;;;;;4419322;32;20062;-54
2021/09/10 07:10:16;;;;;;;378.17;239.90;;;;;;;;;;4423035;32;20090;-54
2021/09/10 07:12:44;;;;;;;385.05;241.07;;;;;;;;;;4425092;32;20034;-54
2021/09/10 07:15:12;;;;;;;393.58;249.50;;;;;;;;;;4427599;32;20090;-54
2021/09/10 07:17:41;;;;;;;410.55;260.05;;;;;;;;;;4427631;32;20483;-54
2021/09/10 07:20:09;;;;;;;409.77;258.10;;;;;;;;;;4427809;32;20035;-54
2021/09/10 07:22:38;;;;;;;421.48;266.58;;;;;;;;;;4418541;32;20074;-55
2021/09/10 07:25:07;;;;;;;391.15;263.52;;;;;;;;;;4428904;32;20385;-55
2021/09/10 07:27:35;;;;;;;399.02;267.87;;;;;;;;;;4420589;32;20073;-54
2021/09/10 07:30:04;;;;;;;408.12;275.30;;;;;;;;;;4420549;32;20171;-54
2021/09/10 07:32:32;;;;;;;464.33;313.85;;;;;;;;;;4422894;32;20042;-54
2021/09/10 07:35:01;;;;;;;481.33;328.98;;;;;;;;;;4420458;32;20046;-54
2021/09/10 07:37:30;;;;;;;471.08;324.95;;;;;;;;;;4416261;32;20046;-54
2021/09/10 07:39:59;;;;;;;507.83;330.52;;;;;;;;;;4420097;32;20034;-55
2021/09/10 07:42:27;;;;;;;494.73;334.50;;;;;;;;;;4420718;32;20042;-54
2021/09/10 07:44:55;;;;;;;510.37;343.98;;;;;;;;;;4423762;32;20034;-55
2021/09/10 07:47:24;;;;;;;508.20;346.52;;;;;;;;;;4431978;32;20095;-55
2021/09/10 07:49:52;;;;;;;512.88;336.40;;;;;;;;;;4444259;32;20054;-54
2021/09/10 07:52:20;;;;;;;521.55;339.80;;;;;;;;;;4436053;32;20068;-55
2021/09/10 07:54:49;;;;;;;525.28;338.95;;;;;;;;;;4418669;32;20046;-55
2021/09/10 07:57:23;;;;;;;534.42;346.27;;;;;;;;;;4429025;32;20973;-55
2021/09/10 07:59:55;;;;;;;537.78;350.73;;;;;;;;;;4422352;32;20613;-55
2021/09/10 08:02:26;;;;;;;493.42;358.17;;;;;;;;;;4421767;32;20069;-55
2021/09/10 08:04:56;;;;;;;339.40;291.95;;;;;;;;;;4429857;32;20042;-55
2021/09/10 08:07:24;;;;;;;269.40;192.77;;;;;;;;;;4419502;32;20381;-55
2021/09/10 08:09:59;;;;;;;6.90;2.22;;;;;;;;;;4435717;32;20071;-55
2021/09/10 08:12:28;;;;;;;5.70;0.98;;;;;;;;;;4419444;32;20077;-55
2021/09/10 08:14:57;;;;;;;4.62;1.20;;;;;;;;;;4427163;32;20425;-55
2021/09/10 08:17:25;;;;;;;4.43;1.05;;;;;;;;;;4426651;32;20090;-55
2021/09/10 08:19:53;;;;;;;4.37;0.98;;;;;;;;;;4424186;32;20122;-56
2021/09/10 08:22:22;;;;;;;6.40;1.00;;;;;;;;;;4423474;32;20038;-56
2021/09/10 08:24:57;;;;;;;7.25;1.30;;;;;;;;;;4434849;32;20108;-56
2021/09/10 08:27:26;;;;;;;3.70;0.77;;;;;;;;;;4426836;32;20054;-55
2021/09/10 08:29:54;;;;;;;6.32;1.00;;;;;;;;;;4424753;32;20545;-56
2021/09/10 08:32:24;;;;;;;4.57;0.93;;;;;;;;;;4423665;32;20054;-56
2021/09/10 08:34:52;;;;;;;7.87;1.20;;;;;;;;;;4425082;32;20177;-56
2021/09/10 08:37:21;;;;;;;3.20;0.90;;;;;;;;;;4426306;32;20067;-56
2021/09/10 08:39:54;;;;;;;11.93;1.13;;;;;;;;;;4428929;32;20110;-56
2021/09/10 08:42:22;;;;;;;1.77;0.77;;;;;;;;;;4427565;32;20215;-56
2021/09/10 08:44:51;;;;;;;6.22;1.17;;;;;;;;;;4425615;32;20054;-56
2021/09/10 08:47:20;;;;;;;5.25;1.15;;;;;;;;;;4433725;32;20098;-56
2021/09/10 08:49:48;;;;;;;4.18;1.10;;;;;;;;;;4429765;32;20066;-56
2021/09/10 08:52:16;;;;;;;5.30;1.10;;;;;;;;;;4424112;32;20050;-56
2021/09/10 08:54:45;;;;;;;5.43;1.67;;;;;;;;;;4437739;32;20388;-56
2021/09/10 08:57:13;;;;;;;3.08;0.80;;;;;;;;;;4426572;32;20079;-56
2021/09/10 08:59:41;;;;;;;5.47;1.23;;;;;;;;;;4430275;32;20072;-56
2021/09/10 09:02:10;;;;;;;6.15;1.35;;;;;;;;;;4426651;32;20050;-56
2021/09/10 09:04:39;;;;;;;3.70;1.15;;;;;;;;;;4424373;32;20107;-56
2021/09/10 09:07:08;;;;;;;8.30;1.37;;;;;;;;;;4423682;32;20780;-56
2021/09/10 09:09:47;;;;;;;4.10;1.17;;;;;;;;;;4427773;32;20162;-56
2021/09/10 09:12:20;;;;;;;3.55;0.90;;;;;;;;;;4429835;32;20072;-56
2021/09/10 09:14:48;;;;;;;4.00;1.10;;;;;;;;;;4439981;32;20050;-56
2021/09/10 09:17:17;;;;;;;4.72;0.80;;;;;;;;;;4429137;32;20106;-56
2021/09/10 09:19:46;;;;;;;2.03;0.75;;;;;;;;;;4431512;32;20039;-56
2021/09/10 09:22:14;;;;;;;4.55;1.00;;;;;;;;;;4430113;32;20062;-56
2021/09/10 09:24:42;;;;;;;3.10;0.90;;;;;;;;;;4448043;32;20076;-56
2021/09/10 09:27:11;;;;;;;5.45;1.12;;;;;;;;;;4437028;32;20596;-55
2021/09/10 09:29:50;;;;;;;5.03;1.08;;;;;;;;;;4426089;32;20073;-56
2021/09/10 09:32:19;;;;;;;5.12;1.10;;;;;;;;;;4428111;32;20083;-56
2021/09/10 09:34:51;;;;;;;3.87;1.00;;;;;;;;;;4430737;32;20176;-56
2021/09/10 09:37:20;;;;;;;5.32;1.30;;;;;;;;;;4432748;32;20035;-56
2021/09/10 09:39:52;;;;;;;8.13;1.23;;;;;;;;;;4423638;32;20066;-56
2021/09/10 09:42:29;;;;;;;5.35;1.30;;;;;;;;;;4430173;32;20050;-56
2021/09/10 09:45:14;;;;;;;3.08;0.98;;;;;;;;;;4419550;32;20074;-56
2021/09/10 09:47:43;;;;;;;10.07;1.20;;;;;;;;;;4428113;32;20125;-56
2021/09/10 09:50:12;;;;;;;8.93;1.23;;;;;;;;;;4424920;32;20804;-56
2021/09/10 09:52:41;;;;;;;10.27;1.52;;;;;;;;;;4430908;32;20069;-56
2021/09/10 09:55:12;;;;;;;9.10;1.25;;;;;;;;;;4423558;32;20124;-56
2021/09/10 09:57:41;;;;;;;12.32;1.80;;;;;;;;;;4421123;32;20077;-56
2021/09/10 10:00:10;;;;;;;12.77;1.58;;;;;;;;;;4423560;32;20118;-56
2021/09/10 10:02:38;;;;;;;9.73;1.50;;;;;;;;;;4428735;32;20141;-56
2021/09/10 10:05:08;;;;;;;10.13;1.35;;;;;;;;;;4435744;32;20176;-56
2021/09/10 10:07:39;;;;;;;5.12;0.90;;;;;;;;;;4449006;32;20137;-56
2021/09/10 10:10:08;;;;;;;14.20;1.60;;;;;;;;;;4437344;32;20115;-56
2021/09/10 10:12:36;;;;;;;4.97;0.82;;;;;;;;;;4433267;32;20097;-56
2021/09/10 10:15:24;;;;;;;4.72;0.90;;;;;;;;;;4441404;32;20116;-56
2021/09/10 10:17:54;;;;;;;15.85;1.80;;;;;;;;;;4433957;32;20507;-54
2021/09/10 10:20:41;;;;;;;3.12;0.90;;;;;;;;;;4441126;32;20050;-54
2021/09/10 10:23:28;;;;;;;5.65;1.00;;;;;;;;;;4416758;32;20050;-54
2021/09/10 10:26:06;;;;;;;3.80;1.00;;;;;;;;;;4436706;32;20113;-54
2021/09/10 10:28:43;;;;;;;9.38;1.30;;;;;;;;;;4447137;32;20046;-54
2021/09/10 10:31:48;;;;;;;5.28;1.10;;;;;;;;;;4435657;32;20101;-54
2021/09/10 10:34:17;;;;;;;3.62;1.00;;;;;;;;;;4425658;32;20070;-53
2021/09/10 10:36:46;;;;;;;4.65;1.10;;;;;;;;;;4431760;32;20450;-53
2021/09/10 10:39:14;;;;;;;3.70;0.88;;;;;;;;;;4433678;32;20422;-53
2021/09/10 10:41:52;;;;;;;4.68;1.10;;;;;;;;;;4442675;32;20054;-53
2021/09/10 10:44:46;;;;;;;5.50;1.02;;;;;;;;;;4446201;32;20502;-54
2021/09/10 10:47:16;;;;;;;10.85;1.48;;;;;;;;;;4428663;32;20038;-54
2021/09/10 10:49:49;;;;;;;6.68;1.30;;;;;;;;;;4447109;32;20088;-53
2021/09/10 10:52:17;;;;;;;;;;;;;;;;;;4433571;32;20081;-53
2021/09/10 10:54:45;;;;;;;8.43;1.50;;;;;;;;;;4433259;32;19962;-54
2021/09/10 10:57:27;;;;;;;4.87;1.02;;;;;;;;;;4432461;32;20148;-53
2021/09/10 10:59:56;;;;;;;6.82;1.27;;;;;;;;;;4417067;32;20068;-53
2021/09/10 11:02:28;;;;;;;4.72;1.37;;;;;;;;;;4417822;32;20046;-53
2021/09/10 11:05:01;;;;;;;5.82;1.12;;;;;;;;;;4448783;32;20048;-53
2021/09/10 11:07:30;;;;;;;4.87;1.50;;;;;;;;;;4447539;32;20037;-53
2021/09/10 11:10:04;;;;;;;10.48;1.20;;;;;;;;;;4442581;32;20076;-53
2021/09/10 11:12:33;;;;;;;4.53;1.23;;;;;;;;;;4445506;32;20637;-53
2021/09/10 11:15:02;;;;;;;5.30;1.20;;;;;;;;;;4436831;32;20149;-53
2021/09/10 11:17:30;;;;;;;4.65;1.10;;;;;;;;;;4423996;32;20100;-53
2021/09/10 11:19:59;;;;;;;4.72;1.10;;;;;;;;;;4432462;32;20801;-53
2021/09/10 11:22:27;;;;;;;4.50;1.00;;;;;;;;;;4432702;32;20493;-54
2021/09/10 11:25:09;;;;;;;7.50;1.17;;;;;;;;;;4432449;32;20087;-54
2021/09/10 11:27:40;;;;;;;11.30;1.12;;;;;;;;;;4431102;32;20081;-54
2021/09/10 11:30:10;;;;;;;13.48;1.40;;;;;;;;;;4432936;32;20110;-53
2021/09/10 11:32:39;;;;;;;4.87;1.05;;;;;;;;;;4438469;32;20697;-53
2021/09/10 11:35:19;;;;;;;16.12;1.87;;;;;;;;;;4439479;32;20049;-53
2021/09/10 11:38:01;;;;;;;31.67;2.62;;;;;;;;;;4433660;32;20210;-53
2021/09/10 11:40:34;;;;;;;11.35;1.25;;;;;;;;;;4433966;32;20045;-53
2021/09/10 11:43:04;;;;;;;7.72;1.10;;;;;;;;;;4438269;32;20094;-53
2021/09/10 11:45:35;;;;;;;6.10;1.25;;;;;;;;;;4449235;32;20080;-53
2021/09/10 11:48:05;;;;;;;5.53;1.20;;;;;;;;;;4439939;32;20369;-54
2021/09/10 11:50:53;;;;;;;7.95;1.05;;;;;;;;;;4424744;32;20054;-53
2021/09/10 11:53:28;;;;;;;5.40;1.08;;;;;;;;;;4451076;32;20139;-53
2021/09/10 11:55:56;;;;;;;;;;;;;;;;;;4419623;32;20039;-53
2021/09/10 11:58:38;;;;;;;8.38;1.30;;;;;;;;;;4429155;32;19953;-53
2021/09/10 12:01:26;;;;;;;4.70;0.90;;;;;;;;;;4435620;32;20069;-53
2021/09/10 12:04:01;;;;;;;5.00;1.17;;;;;;;;;;4435358;32;20029;-53
2021/09/10 12:06:32;;;;;;;3.42;0.98;;;;;;;;;;4434151;32;20485;-53
2021/09/10 12:09:05;;;;;;;3.75;1.17;;;;;;;;;;4448946;32;20053;-53
2021/09/10 12:11:35;;;;;;;6.22;1.27;;;;;;;;;;4439671;32;20046;-53
2021/09/10 12:14:15;;;;;;;2.87;1.20;;;;;;;;;;4449905;32;20125;-53
2021/09/10 12:16:44;;;;;;;4.40;1.05;;;;;;;;;;4436611;32;20385;-53
2021/09/10 12:19:13;;;;;;;2.70;0.80;;;;;;;;;;4449646;32;20513;-53
2021/09/10 12:21:41;;;;;;;6.85;1.12;;;;;;;;;;4441479;32;20069;-53
2021/09/10 12:24:12;;;;;;;4.95;1.10;;;;;;;;;;4446693;32;20117;-53
2021/09/10 12:26:50;;;;;;;4.20;1.00;;;;;;;;;;4447851;32;20566;-53
2021/09/10 12:29:28;;;;;;;4.35;1.20;;;;;;;;;;4448836;32;20119;-56
2021/09/10 12:32:00;;;;;;;6.05;1.00;;;;;;;;;;4436687;32;20109;-56
2021/09/10 12:34:29;;;;;;;10.50;1.30;;;;;;;;;;4448644;32;20100;-55
2021/09/10 12:36:58;;;;;;;4.25;1.00;;;;;;;;;;4448931;32;20682;-55
2021/09/10 12:39:30;;;;;;;15.73;1.87;;;;;;;;;;4449514;32;20573;-56
2021/09/10 12:41:59;;;;;;;4.15;0.80;;;;;;;;;;4438459;32;20082;-56
2021/09/10 12:44:27;;;;;;;5.43;1.12;;;;;;;;;;4434114;32;20484;-56
2021/09/10 12:46:55;;;;;;;4.85;1.25;;;;;;;;;;4433594;32;20502;-55
2021/09/10 12:49:25;;;;;;;7.95;1.20;;;;;;;;;;4445354;32;20057;-55
2021/09/10 12:51:56;;;;;;;3.92;0.98;;;;;;;;;;4444792;32;20050;-55
2021/09/10 12:54:25;;;;;;;7.37;1.20;;;;;;;;;;4450439;32;20494;-55
2021/09/10 12:56:53;;;;;;;6.07;1.23;;;;;;;;;;4447582;32;20079;-56
2021/09/10 12:59:22;;;;;;;5.03;0.90;;;;;;;;;;4441330;32;20070;-55
2021/09/10 13:01:55;;;;;;;4.70;0.90;;;;;;;;;;4446761;32;20423;-55
2021/09/10 13:04:25;;;;;;;7.45;1.20;;;;;;;;;;4442363;32;20450;-55
2021/09/10 13:06:53;;;;;;;4.07;0.85;;;;;;;;;;4426028;32;20133;-55
2021/09/10 13:09:28;;;;;;;5.40;1.00;;;;;;;;;;4420960;32;20393;-55
2021/09/10 13:11:57;;;;;;;3.42;0.98;;;;;;;;;;4423660;32;20038;-55
2021/09/10 13:14:27;;;;;;;10.48;1.27;;;;;;;;;;4429908;32;20103;-55
2021/09/10 13:16:56;;;;;;;6.53;0.98;;;;;;;;;;4424414;32;20064;-55
2021/09/10 13:19:25;;;;;;;7.03;1.35;;;;;;;;;;4420314;32;20657;-55
2021/09/10 13:21:54;;;;;;;10.05;1.10;;;;;;;;;;4423457;32;20109;-55
2021/09/10 13:24:22;;;;;;;3.17;0.73;;;;;;;;;;4435015;32;20092;-55
2021/09/10 13:26:50;;;;;;;5.90;0.90;;;;;;;;;;4444958;32;20045;-55
2021/09/10 13:29:20;;;;;;;8.57;0.90;;;;;;;;;;4429748;32;20536;-55
2021/09/10 13:31:48;;;;;;;26.10;2.50;;;;;;;;;;4437975;32;20045;-55
2021/09/10 13:34:17;;;;;;;4.72;0.90;;;;;;;;;;4432992;32;20073;-55
2021/09/10 13:36:48;;;;;;;3.60;0.85;;;;;;;;;;4432562;32;20125;-55
2021/09/10 13:39:16;;;;;;;5.30;1.17;;;;;;;;;;4422915;32;20071;-55
2021/09/10 13:41:45;;;;;;;9.55;1.27;;;;;;;;;;4431405;32;20042;-55
2021/09/10 13:44:14;;;;;;;5.18;1.25;;;;;;;;;;4440647;32;20098;-55
2021/09/10 13:46:43;;;;;;;6.35;1.27;;;;;;;;;;4429373;32;20045;-55
2021/09/10 13:49:11;;;;;;;4.62;0.88;;;;;;;;;;4423458;32;20151;-55
2021/09/10 13:51:41;;;;;;;6.97;1.20;;;;;;;;;;4418910;32;20094;-55
2021/09/10 13:54:10;;;;;;;3.50;1.00;;;;;;;;;;4418021;32;20157;-55
2021/09/10 13:56:38;;;;;;;4.68;0.93;;;;;;;;;;4422010;32;20106;-55
2021/09/10 13:59:07;;;;;;;5.50;1.10;;;;;;;;;;4426940;32;20046;-55
2021/09/10 14:01:53;;;;;;;5.00;1.37;;;;;;;;;;4426202;32;20157;-55
2021/09/10 14:04:24;;;;;;;8.77;1.92;;;;;;;;;;4426985;32;20072;-55
2021/09/10 14:06:53;;;;;;;6.28;1.30;;;;;;;;;;4423699;32;20049;-55
2021/09/10 14:09:23;;;;;;;6.35;1.25;;;;;;;;;;4429792;32;20045;-55
2021/09/10 14:11:52;;;;;;;4.47;1.05;;;;;;;;;;4423555;32;20050;-55
2021/09/10 14:14:23;;;;;;;5.78;1.27;;;;;;;;;;4425703;32;21569;-55
2021/09/10 14:16:52;;;;;;;6.35;1.30;;;;;;;;;;4420381;32;20412;-55
2021/09/10 14:19:23;;;;;;;5.57;1.33;;;;;;;;;;4427489;32;20440;-55
2021/09/10 14:21:54;;;;;;;8.27;1.60;;;;;;;;;;4427191;32;20123;-55
2021/09/10 14:24:23;;;;;;;10.20;1.65;;;;;;;;;;4427091;32;20050;-55
2021/09/10 14:26:52;;;;;;;5.97;1.52;;;;;;;;;;4421649;32;20069;-55
2021/09/10 14:29:20;;;;;;;5.22;1.30;;;;;;;;;;4432603;32;20547;-55